Aviation Digital Data Service (ADDS)

Output produced by METARs form (2019 UTC 25 September 2020)
found at http://www.aviationweather.gov/metar/data/
 
Forecast for: LIRN (NAPLES/CAPODICHI, IT)
Text: TAF LIRN 251700Z 2518/2618 24018KT 9999 SCT030
Forecast period: 1800 UTC 25 September 2020 to 1800 UTC 26 September 2020
Forecast type: FROM: standard forecast or significant change
Winds: from the WSW (240 degrees) at 21 MPH (18 knots; 9.3 m/s)
Visibility: 6 or more miles (10+ km)
Ceiling: at least 12,000 feet AGL
Clouds: scattered clouds at 3000 feet AGL
Weather: no significant weather forecast for this period
Text: TEMPO 2518/2603 4000 TSRA
Forecast period: 1800 UTC 25 September 2020 to 0300 UTC 26 September 2020
Forecast type: TEMPORARY: The following changes expected for less than half the time period
Visibility: 2.49 miles (4.01 km)
Ceiling: unknown
Clouds: missing
Weather: TSRA  (rain associated with thunderstorm(s))